sensor_id;sensor_type;location;lat;lon;timestamp;P1;durP1;ratioP1;P2;durP2;ratioP2
37903;SDS011;23738;50.422;18.758;2023-12-28T00:00:08;101.30;;;44.40;;
37903;SDS011;23738;50.422;18.758;2023-12-28T00:02:38;95.20;;;39.10;;
37903;SDS011;23738;50.422;18.758;2023-12-28T00:05:09;102.30;;;40.80;;
37903;SDS011;23738;50.422;18.758;2023-12-28T00:07:40;103.40;;;39.20;;
37903;SDS011;23738;50.422;18.758;2023-12-28T00:10:12;98.10;;;40.50;;
37903;SDS011;23738;50.422;18.758;2023-12-28T00:12:42;104.00;;;42.20;;
37903;SDS011;23738;50.422;18.758;2023-12-28T00:15:12;96.50;;;41.40;;
37903;SDS011;23738;50.422;18.758;2023-12-28T00:17:42;88.70;;;37.10;;
37903;SDS011;23738;50.422;18.758;2023-12-28T00:20:13;98.40;;;41.40;;
37903;SDS011;23738;50.422;18.758;2023-12-28T00:22:43;75.60;;;32.70;;
37903;SDS011;23738;50.422;18.758;2023-12-28T00:25:13;80.40;;;31.50;;
37903;SDS011;23738;50.422;18.758;2023-12-28T00:27:44;64.40;;;27.80;;
37903;SDS011;23738;50.422;18.758;2023-12-28T00:30:14;64.00;;;28.50;;
37903;SDS011;23738;50.422;18.758;2023-12-28T00:32:45;70.50;;;27.40;;
37903;SDS011;23738;50.422;18.758;2023-12-28T00:35:15;65.30;;;27.70;;
37903;SDS011;23738;50.422;18.758;2023-12-28T00:37:45;66.60;;;29.50;;
37903;SDS011;23738;50.422;18.758;2023-12-28T00:40:17;65.20;;;30.10;;
37903;SDS011;23738;50.422;18.758;2023-12-28T00:42:48;72.00;;;30.60;;
37903;SDS011;23738;50.422;18.758;2023-12-28T00:45:19;64.70;;;28.70;;
37903;SDS011;23738;50.422;18.758;2023-12-28T00:47:50;64.90;;;27.40;;
37903;SDS011;23738;50.422;18.758;2023-12-28T00:50:22;71.90;;;30.80;;
37903;SDS011;23738;50.422;18.758;2023-12-28T00:52:55;73.30;;;31.00;;
37903;SDS011;23738;50.422;18.758;2023-12-28T00:55:26;67.20;;;29.70;;
37903;SDS011;23738;50.422;18.758;2023-12-28T00:57:56;61.50;;;30.10;;
37903;SDS011;23738;50.422;18.758;2023-12-28T01:00:26;76.50;;;31.40;;
37903;SDS011;23738;50.422;18.758;2023-12-28T01:02:56;68.90;;;31.90;;
37903;SDS011;23738;50.422;18.758;2023-12-28T01:05:26;74.80;;;32.20;;
37903;SDS011;23738;50.422;18.758;2023-12-28T01:07:56;70.20;;;31.90;;
37903;SDS011;23738;50.422;18.758;2023-12-28T01:10:27;67.00;;;30.00;;
37903;SDS011;23738;50.422;18.758;2023-12-28T01:12:57;66.90;;;27.00;;
37903;SDS011;23738;50.422;18.758;2023-12-28T01:15:28;57.90;;;27.10;;
37903;SDS011;23738;50.422;18.758;2023-12-28T01:17:57;53.90;;;26.50;;
37903;SDS011;23738;50.422;18.758;2023-12-28T01:20:27;62.50;;;29.50;;
37903;SDS011;23738;50.422;18.758;2023-12-28T01:22:57;59.40;;;27.90;;
37903;SDS011;23738;50.422;18.758;2023-12-28T01:25:28;49.80;;;25.40;;
37903;SDS011;23738;50.422;18.758;2023-12-28T01:27:58;57.20;;;28.20;;
37903;SDS011;23738;50.422;18.758;2023-12-28T01:30:28;56.90;;;25.90;;
37903;SDS011;23738;50.422;18.758;2023-12-28T01:32:58;43.60;;;22.30;;
37903;SDS011;23738;50.422;18.758;2023-12-28T01:35:28;44.10;;;20.70;;
37903;SDS011;23738;50.422;18.758;2023-12-28T01:37:58;45.00;;;22.10;;
37903;SDS011;23738;50.422;18.758;2023-12-28T01:40:28;49.80;;;24.20;;
37903;SDS011;23738;50.422;18.758;2023-12-28T01:42:58;56.80;;;24.20;;
37903;SDS011;23738;50.422;18.758;2023-12-28T01:45:29;52.60;;;24.70;;
37903;SDS011;23738;50.422;18.758;2023-12-28T01:47:58;58.80;;;26.00;;
37903;SDS011;23738;50.422;18.758;2023-12-28T01:50:29;47.40;;;24.50;;
37903;SDS011;23738;50.422;18.758;2023-12-28T01:53:00;43.50;;;20.30;;
37903;SDS011;23738;50.422;18.758;2023-12-28T01:55:32;39.20;;;19.10;;
37903;SDS011;23738;50.422;18.758;2023-12-28T01:58:06;44.60;;;17.60;;
37903;SDS011;23738;50.422;18.758;2023-12-28T02:00:36;35.20;;;16.10;;
37903;SDS011;23738;50.422;18.758;2023-12-28T02:03:07;31.40;;;15.90;;
37903;SDS011;23738;50.422;18.758;2023-12-28T02:05:38;31.30;;;15.30;;
37903;SDS011;23738;50.422;18.758;2023-12-28T02:08:08;33.80;;;16.00;;
37903;SDS011;23738;50.422;18.758;2023-12-28T02:10:40;27.90;;;15.70;;
37903;SDS011;23738;50.422;18.758;2023-12-28T02:13:10;28.00;;;15.80;;
37903;SDS011;23738;50.422;18.758;2023-12-28T02:15:41;26.50;;;15.60;;
37903;SDS011;23738;50.422;18.758;2023-12-28T02:18:16;33.10;;;15.70;;
37903;SDS011;23738;50.422;18.758;2023-12-28T02:20:51;32.60;;;15.90;;
37903;SDS011;23738;50.422;18.758;2023-12-28T02:23:22;28.50;;;16.50;;
37903;SDS011;23738;50.422;18.758;2023-12-28T02:25:52;28.50;;;15.60;;
37903;SDS011;23738;50.422;18.758;2023-12-28T02:28:22;30.70;;;17.20;;
37903;SDS011;23738;50.422;18.758;2023-12-28T02:30:53;29.00;;;18.30;;
37903;SDS011;23738;50.422;18.758;2023-12-28T02:33:24;32.30;;;17.10;;
37903;SDS011;23738;50.422;18.758;2023-12-28T02:36:04;36.70;;;17.00;;
37903;SDS011;23738;50.422;18.758;2023-12-28T02:38:37;36.00;;;18.20;;
37903;SDS011;23738;50.422;18.758;2023-12-28T02:41:09;34.00;;;18.50;;
37903;SDS011;23738;50.422;18.758;2023-12-28T02:43:40;38.70;;;19.90;;
37903;SDS011;23738;50.422;18.758;2023-12-28T02:46:11;42.60;;;21.90;;
37903;SDS011;23738;50.422;18.758;2023-12-28T02:48:43;49.90;;;23.30;;
37903;SDS011;23738;50.422;18.758;2023-12-28T02:51:13;47.10;;;23.60;;
37903;SDS011;23738;50.422;18.758;2023-12-28T02:53:44;46.40;;;22.40;;
37903;SDS011;23738;50.422;18.758;2023-12-28T02:56:14;39.20;;;20.80;;
37903;SDS011;23738;50.422;18.758;2023-12-28T02:58:44;44.40;;;21.60;;
37903;SDS011;23738;50.422;18.758;2023-12-28T03:01:14;41.50;;;21.00;;
37903;SDS011;23738;50.422;18.758;2023-12-28T03:03:45;40.30;;;21.60;;
37903;SDS011;23738;50.422;18.758;2023-12-28T03:06:16;39.50;;;18.80;;
37903;SDS011;23738;50.422;18.758;2023-12-28T03:08:45;35.50;;;18.10;;
37903;SDS011;23738;50.422;18.758;2023-12-28T03:11:15;38.70;;;18.10;;
37903;SDS011;23738;50.422;18.758;2023-12-28T03:13:47;34.90;;;17.30;;
37903;SDS011;23738;50.422;18.758;2023-12-28T03:16:17;35.80;;;17.00;;
37903;SDS011;23738;50.422;18.758;2023-12-28T03:18:46;33.10;;;16.40;;
37903;SDS011;23738;50.422;18.758;2023-12-28T03:21:16;36.10;;;18.50;;
37903;SDS011;23738;50.422;18.758;2023-12-28T03:23:46;37.50;;;19.50;;
37903;SDS011;23738;50.422;18.758;2023-12-28T03:26:16;40.50;;;20.40;;
37903;SDS011;23738;50.422;18.758;2023-12-28T03:28:46;38.10;;;21.00;;
37903;SDS011;23738;50.422;18.758;2023-12-28T03:31:16;39.10;;;19.90;;
37903;SDS011;23738;50.422;18.758;2023-12-28T03:33:46;35.60;;;19.50;;
37903;SDS011;23738;50.422;18.758;2023-12-28T03:36:19;37.20;;;19.40;;
37903;SDS011;23738;50.422;18.758;2023-12-28T03:38:50;39.00;;;19.50;;
37903;SDS011;23738;50.422;18.758;2023-12-28T03:41:20;47.10;;;22.50;;
37903;SDS011;23738;50.422;18.758;2023-12-28T03:43:50;47.80;;;24.30;;
37903;SDS011;23738;50.422;18.758;2023-12-28T03:46:20;44.00;;;23.10;;
37903;SDS011;23738;50.422;18.758;2023-12-28T03:48:50;36.50;;;21.40;;
37903;SDS011;23738;50.422;18.758;2023-12-28T03:51:20;38.50;;;21.70;;
37903;SDS011;23738;50.422;18.758;2023-12-28T03:53:52;44.10;;;21.30;;
37903;SDS011;23738;50.422;18.758;2023-12-28T03:56:24;41.90;;;20.30;;
37903;SDS011;23738;50.422;18.758;2023-12-28T03:58:56;39.90;;;20.20;;
37903;SDS011;23738;50.422;18.758;2023-12-28T04:01:27;41.10;;;21.30;;
37903;SDS011;23738;50.422;18.758;2023-12-28T04:03:57;38.80;;;19.40;;
37903;SDS011;23738;50.422;18.758;2023-12-28T04:06:27;37.00;;;19.90;;
37903;SDS011;23738;50.422;18.758;2023-12-28T04:08:58;36.70;;;18.50;;
37903;SDS011;23738;50.422;18.758;2023-12-28T04:11:29;37.10;;;18.00;;
37903;SDS011;23738;50.422;18.758;2023-12-28T04:14:00;32.50;;;17.20;;
37903;SDS011;23738;50.422;18.758;2023-12-28T04:16:31;31.20;;;16.80;;
37903;SDS011;23738;50.422;18.758;2023-12-28T04:19:03;34.40;;;16.40;;
37903;SDS011;23738;50.422;18.758;2023-12-28T04:21:33;31.20;;;16.90;;
37903;SDS011;23738;50.422;18.758;2023-12-28T04:24:04;38.50;;;17.80;;
37903;SDS011;23738;50.422;18.758;2023-12-28T04:26:34;35.90;;;18.40;;
37903;SDS011;23738;50.422;18.758;2023-12-28T04:29:04;31.30;;;17.90;;
37903;SDS011;23738;50.422;18.758;2023-12-28T04:31:34;29.60;;;16.20;;
37903;SDS011;23738;50.422;18.758;2023-12-28T04:34:09;26.70;;;15.40;;
37903;SDS011;23738;50.422;18.758;2023-12-28T04:36:42;24.20;;;14.20;;
37903;SDS011;23738;50.422;18.758;2023-12-28T04:39:13;28.10;;;16.10;;
37903;SDS011;23738;50.422;18.758;2023-12-28T04:41:44;22.00;;;15.10;;
37903;SDS011;23738;50.422;18.758;2023-12-28T04:44:14;33.20;;;16.50;;
37903;SDS011;23738;50.422;18.758;2023-12-28T04:46:45;30.70;;;18.00;;
37903;SDS011;23738;50.422;18.758;2023-12-28T04:49:14;32.50;;;18.10;;
37903;SDS011;23738;50.422;18.758;2023-12-28T04:51:45;35.50;;;17.20;;
37903;SDS011;23738;50.422;18.758;2023-12-28T04:54:15;31.60;;;15.90;;
37903;SDS011;23738;50.422;18.758;2023-12-28T04:56:45;28.70;;;15.10;;
37903;SDS011;23738;50.422;18.758;2023-12-28T04:59:15;21.30;;;14.50;;
37903;SDS011;23738;50.422;18.758;2023-12-28T05:01:45;20.20;;;14.70;;
37903;SDS011;23738;50.422;18.758;2023-12-28T05:04:16;17.00;;;12.60;;
37903;SDS011;23738;50.422;18.758;2023-12-28T05:06:47;17.90;;;12.40;;
37903;SDS011;23738;50.422;18.758;2023-12-28T05:09:18;21.40;;;12.20;;
37903;SDS011;23738;50.422;18.758;2023-12-28T05:11:48;24.20;;;12.50;;
37903;SDS011;23738;50.422;18.758;2023-12-28T05:14:19;18.50;;;11.00;;
37903;SDS011;23738;50.422;18.758;2023-12-28T05:16:49;19.20;;;11.70;;
37903;SDS011;23738;50.422;18.758;2023-12-28T05:19:20;30.10;;;15.60;;
37903;SDS011;23738;50.422;18.758;2023-12-28T05:21:51;20.10;;;13.80;;
37903;SDS011;23738;50.422;18.758;2023-12-28T05:24:21;20.00;;;13.00;;
37903;SDS011;23738;50.422;18.758;2023-12-28T05:26:53;21.10;;;11.40;;
37903;SDS011;23738;50.422;18.758;2023-12-28T05:29:22;16.00;;;10.50;;
37903;SDS011;23738;50.422;18.758;2023-12-28T05:31:53;12.50;;;9.90;;
37903;SDS011;23738;50.422;18.758;2023-12-28T05:34:23;15.00;;;10.20;;
37903;SDS011;23738;50.422;18.758;2023-12-28T05:36:53;17.00;;;10.50;;
37903;SDS011;23738;50.422;18.758;2023-12-28T05:39:25;23.20;;;13.90;;
37903;SDS011;23738;50.422;18.758;2023-12-28T05:41:55;24.80;;;13.60;;
37903;SDS011;23738;50.422;18.758;2023-12-28T05:44:25;14.70;;;10.40;;
37903;SDS011;23738;50.422;18.758;2023-12-28T05:46:55;10.60;;;8.40;;
37903;SDS011;23738;50.422;18.758;2023-12-28T05:49:25;14.50;;;8.60;;
37903;SDS011;23738;50.422;18.758;2023-12-28T05:51:57;10.50;;;8.80;;
37903;SDS011;23738;50.422;18.758;2023-12-28T05:54:26;11.70;;;9.30;;
37903;SDS011;23738;50.422;18.758;2023-12-28T05:56:57;14.80;;;8.80;;
37903;SDS011;23738;50.422;18.758;2023-12-28T05:59:27;12.90;;;8.80;;
37903;SDS011;23738;50.422;18.758;2023-12-28T06:01:57;12.00;;;8.30;;
37903;SDS011;23738;50.422;18.758;2023-12-28T06:04:26;9.20;;;8.10;;
37903;SDS011;23738;50.422;18.758;2023-12-28T06:07:00;11.70;;;8.00;;
37903;SDS011;23738;50.422;18.758;2023-12-28T06:09:34;13.60;;;9.00;;
37903;SDS011;23738;50.422;18.758;2023-12-28T06:12:06;12.00;;;9.50;;
37903;SDS011;23738;50.422;18.758;2023-12-28T06:14:37;13.90;;;9.90;;
37903;SDS011;23738;50.422;18.758;2023-12-28T06:17:07;15.60;;;10.00;;
37903;SDS011;23738;50.422;18.758;2023-12-28T06:19:36;12.90;;;9.20;;
37903;SDS011;23738;50.422;18.758;2023-12-28T06:22:06;12.80;;;8.70;;
37903;SDS011;23738;50.422;18.758;2023-12-28T06:24:38;17.30;;;9.50;;
37903;SDS011;23738;50.422;18.758;2023-12-28T06:27:09;17.30;;;10.60;;
37903;SDS011;23738;50.422;18.758;2023-12-28T06:29:41;39.50;;;15.70;;
37903;SDS011;23738;50.422;18.758;2023-12-28T06:32:11;42.30;;;15.60;;
37903;SDS011;23738;50.422;18.758;2023-12-28T06:34:42;30.30;;;15.00;;
37903;SDS011;23738;50.422;18.758;2023-12-28T06:37:12;19.00;;;10.60;;
37903;SDS011;23738;50.422;18.758;2023-12-28T06:39:42;12.60;;;9.50;;
37903;SDS011;23738;50.422;18.758;2023-12-28T06:42:14;16.60;;;9.70;;
37903;SDS011;23738;50.422;18.758;2023-12-28T06:44:44;17.50;;;9.70;;
37903;SDS011;23738;50.422;18.758;2023-12-28T06:47:14;13.40;;;9.80;;
37903;SDS011;23738;50.422;18.758;2023-12-28T06:49:44;14.90;;;10.30;;
37903;SDS011;23738;50.422;18.758;2023-12-28T06:52:14;16.00;;;10.80;;
37903;SDS011;23738;50.422;18.758;2023-12-28T06:54:44;13.60;;;9.90;;
37903;SDS011;23738;50.422;18.758;2023-12-28T06:57:15;15.40;;;10.50;;
37903;SDS011;23738;50.422;18.758;2023-12-28T06:59:46;25.60;;;13.90;;
37903;SDS011;23738;50.422;18.758;2023-12-28T07:02:16;34.00;;;16.50;;
37903;SDS011;23738;50.422;18.758;2023-12-28T07:04:46;14.60;;;10.70;;
37903;SDS011;23738;50.422;18.758;2023-12-28T07:07:16;14.30;;;10.70;;
37903;SDS011;23738;50.422;18.758;2023-12-28T07:09:46;15.00;;;9.70;;
37903;SDS011;23738;50.422;18.758;2023-12-28T07:12:16;18.80;;;10.00;;
37903;SDS011;23738;50.422;18.758;2023-12-28T07:14:47;15.40;;;10.00;;
37903;SDS011;23738;50.422;18.758;2023-12-28T07:17:18;16.30;;;10.80;;
37903;SDS011;23738;50.422;18.758;2023-12-28T07:19:48;19.30;;;10.60;;
37903;SDS011;23738;50.422;18.758;2023-12-28T07:22:19;15.70;;;11.70;;
37903;SDS011;23738;50.422;18.758;2023-12-28T07:24:49;15.80;;;11.50;;
37903;SDS011;23738;50.422;18.758;2023-12-28T07:27:20;18.80;;;10.70;;
37903;SDS011;23738;50.422;18.758;2023-12-28T07:29:50;21.30;;;12.30;;
37903;SDS011;23738;50.422;18.758;2023-12-28T07:32:21;17.20;;;10.70;;
37903;SDS011;23738;50.422;18.758;2023-12-28T07:34:52;18.10;;;11.10;;
37903;SDS011;23738;50.422;18.758;2023-12-28T07:37:23;17.20;;;12.10;;
37903;SDS011;23738;50.422;18.758;2023-12-28T07:39:52;16.70;;;12.20;;
37903;SDS011;23738;50.422;18.758;2023-12-28T07:42:23;15.20;;;10.70;;
37903;SDS011;23738;50.422;18.758;2023-12-28T07:44:53;16.90;;;11.00;;
37903;SDS011;23738;50.422;18.758;2023-12-28T07:47:24;16.20;;;11.00;;
37903;SDS011;23738;50.422;18.758;2023-12-28T07:49:55;17.00;;;11.30;;
37903;SDS011;23738;50.422;18.758;2023-12-28T07:52:26;17.60;;;11.30;;
37903;SDS011;23738;50.422;18.758;2023-12-28T07:54:57;20.50;;;13.00;;
37903;SDS011;23738;50.422;18.758;2023-12-28T07:57:27;25.30;;;15.30;;
37903;SDS011;23738;50.422;18.758;2023-12-28T07:59:58;19.00;;;13.10;;
37903;SDS011;23738;50.422;18.758;2023-12-28T08:02:30;15.20;;;10.70;;
37903;SDS011;23738;50.422;18.758;2023-12-28T08:05:00;18.60;;;10.70;;
37903;SDS011;23738;50.422;18.758;2023-12-28T08:07:32;13.40;;;11.50;;
37903;SDS011;23738;50.422;18.758;2023-12-28T08:10:02;16.50;;;12.00;;
37903;SDS011;23738;50.422;18.758;2023-12-28T08:12:34;28.40;;;15.30;;
37903;SDS011;23738;50.422;18.758;2023-12-28T08:15:06;23.50;;;14.40;;
37903;SDS011;23738;50.422;18.758;2023-12-28T08:17:37;30.20;;;16.60;;
37903;SDS011;23738;50.422;18.758;2023-12-28T08:20:08;19.20;;;13.20;;
37903;SDS011;23738;50.422;18.758;2023-12-28T08:22:40;15.10;;;11.40;;
37903;SDS011;23738;50.422;18.758;2023-12-28T08:25:10;16.10;;;10.80;;
37903;SDS011;23738;50.422;18.758;2023-12-28T08:27:40;13.00;;;10.30;;
37903;SDS011;23738;50.422;18.758;2023-12-28T08:30:11;14.20;;;10.80;;
37903;SDS011;23738;50.422;18.758;2023-12-28T08:32:42;14.40;;;10.60;;
37903;SDS011;23738;50.422;18.758;2023-12-28T08:35:12;14.70;;;11.40;;
37903;SDS011;23738;50.422;18.758;2023-12-28T08:37:42;12.80;;;10.00;;
37903;SDS011;23738;50.422;18.758;2023-12-28T08:40:13;13.60;;;10.20;;
37903;SDS011;23738;50.422;18.758;2023-12-28T08:42:45;13.90;;;10.30;;
37903;SDS011;23738;50.422;18.758;2023-12-28T08:45:15;20.10;;;11.10;;
37903;SDS011;23738;50.422;18.758;2023-12-28T08:47:45;14.80;;;11.10;;
37903;SDS011;23738;50.422;18.758;2023-12-28T08:50:15;14.50;;;11.40;;
37903;SDS011;23738;50.422;18.758;2023-12-28T08:52:45;12.20;;;10.20;;
37903;SDS011;23738;50.422;18.758;2023-12-28T08:55:15;20.40;;;12.30;;
37903;SDS011;23738;50.422;18.758;2023-12-28T08:57:45;19.60;;;12.10;;
37903;SDS011;23738;50.422;18.758;2023-12-28T09:00:17;18.40;;;11.10;;
37903;SDS011;23738;50.422;18.758;2023-12-28T09:02:47;19.70;;;11.90;;
37903;SDS011;23738;50.422;18.758;2023-12-28T09:05:18;12.30;;;9.50;;
37903;SDS011;23738;50.422;18.758;2023-12-28T09:07:48;16.70;;;11.20;;
37903;SDS011;23738;50.422;18.758;2023-12-28T09:10:19;15.10;;;11.30;;
37903;SDS011;23738;50.422;18.758;2023-12-28T09:12:49;13.60;;;9.90;;
37903;SDS011;23738;50.422;18.758;2023-12-28T09:15:20;11.80;;;8.90;;
37903;SDS011;23738;50.422;18.758;2023-12-28T09:17:51;11.30;;;8.40;;
37903;SDS011;23738;50.422;18.758;2023-12-28T09:20:23;13.50;;;8.80;;
37903;SDS011;23738;50.422;18.758;2023-12-28T09:22:53;12.20;;;9.60;;
37903;SDS011;23738;50.422;18.758;2023-12-28T09:25:23;11.40;;;9.90;;
37903;SDS011;23738;50.422;18.758;2023-12-28T09:27:52;11.30;;;9.00;;
37903;SDS011;23738;50.422;18.758;2023-12-28T09:30:22;13.10;;;8.90;;
37903;SDS011;23738;50.422;18.758;2023-12-28T09:32:53;13.10;;;8.90;;
37903;SDS011;23738;50.422;18.758;2023-12-28T09:35:23;11.10;;;9.00;;
37903;SDS011;23738;50.422;18.758;2023-12-28T09:37:53;14.60;;;9.70;;
37903;SDS011;23738;50.422;18.758;2023-12-28T09:40:26;13.20;;;9.60;;
37903;SDS011;23738;50.422;18.758;2023-12-28T09:43:00;13.50;;;11.30;;
37903;SDS011;23738;50.422;18.758;2023-12-28T09:45:37;17.00;;;10.20;;
37903;SDS011;23738;50.422;18.758;2023-12-28T09:48:07;14.30;;;9.70;;
37903;SDS011;23738;50.422;18.758;2023-12-28T09:50:40;14.80;;;10.10;;
37903;SDS011;23738;50.422;18.758;2023-12-28T09:53:09;12.80;;;10.60;;
37903;SDS011;23738;50.422;18.758;2023-12-28T09:55:39;18.60;;;11.20;;
37903;SDS011;23738;50.422;18.758;2023-12-28T09:58:10;12.50;;;10.30;;
37903;SDS011;23738;50.422;18.758;2023-12-28T10:00:45;15.60;;;9.70;;
37903;SDS011;23738;50.422;18.758;2023-12-28T10:03:16;11.30;;;8.20;;
37903;SDS011;23738;50.422;18.758;2023-12-28T10:05:47;13.80;;;8.70;;
37903;SDS011;23738;50.422;18.758;2023-12-28T10:08:17;13.30;;;8.30;;
37903;SDS011;23738;50.422;18.758;2023-12-28T10:10:47;13.50;;;9.50;;
37903;SDS011;23738;50.422;18.758;2023-12-28T10:13:20;19.10;;;10.60;;
37903;SDS011;23738;50.422;18.758;2023-12-28T10:15:50;16.60;;;10.70;;
37903;SDS011;23738;50.422;18.758;2023-12-28T10:18:21;11.30;;;9.10;;
37903;SDS011;23738;50.422;18.758;2023-12-28T10:20:51;16.10;;;9.30;;
37903;SDS011;23738;50.422;18.758;2023-12-28T10:23:21;13.10;;;8.40;;
37903;SDS011;23738;50.422;18.758;2023-12-28T10:25:55;12.60;;;7.90;;
37903;SDS011;23738;50.422;18.758;2023-12-28T10:28:26;9.90;;;7.90;;
37903;SDS011;23738;50.422;18.758;2023-12-28T10:30:59;11.60;;;8.10;;
37903;SDS011;23738;50.422;18.758;2023-12-28T10:33:35;9.10;;;7.60;;
37903;SDS011;23738;50.422;18.758;2023-12-28T10:36:06;9.20;;;7.70;;
37903;SDS011;23738;50.422;18.758;2023-12-28T10:38:37;11.50;;;7.00;;
37903;SDS011;23738;50.422;18.758;2023-12-28T10:41:09;12.60;;;8.40;;
37903;SDS011;23738;50.422;18.758;2023-12-28T10:43:45;16.30;;;11.00;;
37903;SDS011;23738;50.422;18.758;2023-12-28T10:46:31;17.70;;;8.80;;
37903;SDS011;23738;50.422;18.758;2023-12-28T10:51:39;12.40;;;8.40;;
37903;SDS011;23738;50.422;18.758;2023-12-28T10:54:17;12.60;;;8.30;;
37903;SDS011;23738;50.422;18.758;2023-12-28T10:56:59;13.90;;;8.50;;
37903;SDS011;23738;50.422;18.758;2023-12-28T10:59:39;11.70;;;8.50;;
37903;SDS011;23738;50.422;18.758;2023-12-28T11:02:16;9.60;;;8.50;;
37903;SDS011;23738;50.422;18.758;2023-12-28T11:04:50;12.40;;;7.90;;
37903;SDS011;23738;50.422;18.758;2023-12-28T11:07:22;9.40;;;7.20;;
37903;SDS011;23738;50.422;18.758;2023-12-28T11:09:59;9.40;;;7.70;;
37903;SDS011;23738;50.422;18.758;2023-12-28T11:12:31;9.20;;;6.30;;
37903;SDS011;23738;50.422;18.758;2023-12-28T11:15:03;12.50;;;7.70;;
37903;SDS011;23738;50.422;18.758;2023-12-28T11:17:36;8.60;;;7.10;;
37903;SDS011;23738;50.422;18.758;2023-12-28T11:20:08;10.80;;;8.90;;
37903;SDS011;23738;50.422;18.758;2023-12-28T11:22:41;11.10;;;8.00;;
37903;SDS011;23738;50.422;18.758;2023-12-28T11:25:17;9.10;;;7.70;;
37903;SDS011;23738;50.422;18.758;2023-12-28T11:27:48;7.90;;;7.10;;
37903;SDS011;23738;50.422;18.758;2023-12-28T11:30:18;8.90;;;6.70;;
37903;SDS011;23738;50.422;18.758;2023-12-28T11:32:48;9.40;;;6.80;;
37903;SDS011;23738;50.422;18.758;2023-12-28T11:35:20;8.70;;;7.30;;
37903;SDS011;23738;50.422;18.758;2023-12-28T11:37:51;8.70;;;6.90;;
37903;SDS011;23738;50.422;18.758;2023-12-28T11:40:22;7.80;;;6.40;;
37903;SDS011;23738;50.422;18.758;2023-12-28T11:42:53;8.10;;;6.70;;
37903;SDS011;23738;50.422;18.758;2023-12-28T11:45:23;9.20;;;7.00;;
37903;SDS011;23738;50.422;18.758;2023-12-28T11:48:00;9.20;;;7.20;;
37903;SDS011;23738;50.422;18.758;2023-12-28T11:50:31;8.10;;;6.60;;
37903;SDS011;23738;50.422;18.758;2023-12-28T11:53:02;7.60;;;6.70;;
37903;SDS011;23738;50.422;18.758;2023-12-28T11:55:33;9.20;;;7.40;;
37903;SDS011;23738;50.422;18.758;2023-12-28T11:58:03;9.30;;;8.30;;
37903;SDS011;23738;50.422;18.758;2023-12-28T12:00:34;10.70;;;7.50;;
37903;SDS011;23738;50.422;18.758;2023-12-28T12:03:04;8.40;;;7.30;;
37903;SDS011;23738;50.422;18.758;2023-12-28T12:05:37;8.10;;;7.00;;
37903;SDS011;23738;50.422;18.758;2023-12-28T12:08:08;16.70;;;11.70;;
37903;SDS011;23738;50.422;18.758;2023-12-28T12:10:41;19.10;;;11.00;;
37903;SDS011;23738;50.422;18.758;2023-12-28T12:13:11;21.60;;;13.20;;
37903;SDS011;23738;50.422;18.758;2023-12-28T12:15:42;19.50;;;12.40;;
37903;SDS011;23738;50.422;18.758;2023-12-28T12:18:14;22.10;;;14.30;;
37903;SDS011;23738;50.422;18.758;2023-12-28T12:20:43;9.00;;;7.90;;
37903;SDS011;23738;50.422;18.758;2023-12-28T12:23:14;8.00;;;6.00;;
37903;SDS011;23738;50.422;18.758;2023-12-28T12:25:45;7.80;;;5.30;;
37903;SDS011;23738;50.422;18.758;2023-12-28T12:28:15;6.90;;;5.90;;
37903;SDS011;23738;50.422;18.758;2023-12-28T12:30:50;8.60;;;6.40;;
37903;SDS011;23738;50.422;18.758;2023-12-28T12:33:22;8.40;;;7.00;;
37903;SDS011;23738;50.422;18.758;2023-12-28T12:35:53;8.10;;;7.10;;
37903;SDS011;23738;50.422;18.758;2023-12-28T12:38:24;8.30;;;6.50;;
37903;SDS011;23738;50.422;18.758;2023-12-28T12:40:55;8.80;;;6.80;;
37903;SDS011;23738;50.422;18.758;2023-12-28T12:43:25;9.80;;;6.40;;
37903;SDS011;23738;50.422;18.758;2023-12-28T12:45:54;9.90;;;7.30;;
37903;SDS011;23738;50.422;18.758;2023-12-28T12:48:24;14.30;;;8.90;;
37903;SDS011;23738;50.422;18.758;2023-12-28T12:50:54;16.60;;;9.40;;
37903;SDS011;23738;50.422;18.758;2023-12-28T12:53:24;13.30;;;7.90;;
37903;SDS011;23738;50.422;18.758;2023-12-28T12:56:00;16.20;;;7.90;;
37903;SDS011;23738;50.422;18.758;2023-12-28T12:58:30;15.20;;;9.40;;
37903;SDS011;23738;50.422;18.758;2023-12-28T13:01:00;17.80;;;10.40;;
37903;SDS011;23738;50.422;18.758;2023-12-28T13:03:31;47.40;;;20.90;;
37903;SDS011;23738;50.422;18.758;2023-12-28T13:06:00;24.60;;;13.90;;
37903;SDS011;23738;50.422;18.758;2023-12-28T13:08:32;15.80;;;10.10;;
37903;SDS011;23738;50.422;18.758;2023-12-28T13:11:02;11.00;;;8.10;;
37903;SDS011;23738;50.422;18.758;2023-12-28T13:13:33;10.00;;;7.80;;
37903;SDS011;23738;50.422;18.758;2023-12-28T13:16:04;9.30;;;8.20;;
37903;SDS011;23738;50.422;18.758;2023-12-28T13:18:34;9.60;;;6.90;;
37903;SDS011;23738;50.422;18.758;2023-12-28T13:21:06;9.00;;;7.00;;
37903;SDS011;23738;50.422;18.758;2023-12-28T13:23:37;7.60;;;6.20;;
37903;SDS011;23738;50.422;18.758;2023-12-28T13:26:08;8.50;;;6.20;;
37903;SDS011;23738;50.422;18.758;2023-12-28T13:28:38;10.70;;;7.20;;
37903;SDS011;23738;50.422;18.758;2023-12-28T13:31:09;8.20;;;6.80;;
37903;SDS011;23738;50.422;18.758;2023-12-28T13:33:39;9.00;;;7.30;;
37903;SDS011;23738;50.422;18.758;2023-12-28T13:36:09;7.40;;;6.20;;
37903;SDS011;23738;50.422;18.758;2023-12-28T13:38:40;8.00;;;6.40;;
37903;SDS011;23738;50.422;18.758;2023-12-28T13:41:10;8.90;;;6.50;;
37903;SDS011;23738;50.422;18.758;2023-12-28T13:43:40;7.50;;;6.40;;
37903;SDS011;23738;50.422;18.758;2023-12-28T13:46:10;9.20;;;7.00;;
37903;SDS011;23738;50.422;18.758;2023-12-28T13:48:41;8.20;;;7.20;;
37903;SDS011;23738;50.422;18.758;2023-12-28T13:51:12;7.80;;;6.80;;
37903;SDS011;23738;50.422;18.758;2023-12-28T13:53:42;7.90;;;6.80;;
37903;SDS011;23738;50.422;18.758;2023-12-28T13:56:12;13.40;;;7.50;;
37903;SDS011;23738;50.422;18.758;2023-12-28T13:58:42;15.20;;;9.10;;
37903;SDS011;23738;50.422;18.758;2023-12-28T14:01:12;15.80;;;10.20;;
37903;SDS011;23738;50.422;18.758;2023-12-28T14:03:42;14.00;;;10.20;;
37903;SDS011;23738;50.422;18.758;2023-12-28T14:06:15;16.70;;;11.90;;
37903;SDS011;23738;50.422;18.758;2023-12-28T14:08:46;14.30;;;11.20;;
37903;SDS011;23738;50.422;18.758;2023-12-28T14:11:16;17.80;;;12.40;;
37903;SDS011;23738;50.422;18.758;2023-12-28T14:13:46;21.40;;;18.70;;
37903;SDS011;23738;50.422;18.758;2023-12-28T14:16:15;24.00;;;17.50;;
37903;SDS011;23738;50.422;18.758;2023-12-28T14:18:45;18.40;;;14.80;;
37903;SDS011;23738;50.422;18.758;2023-12-28T14:21:15;18.30;;;13.60;;
37903;SDS011;23738;50.422;18.758;2023-12-28T14:23:47;11.00;;;9.30;;
37903;SDS011;23738;50.422;18.758;2023-12-28T14:26:19;16.30;;;10.80;;
37903;SDS011;23738;50.422;18.758;2023-12-28T14:28:50;37.80;;;18.70;;
37903;SDS011;23738;50.422;18.758;2023-12-28T14:31:23;18.80;;;11.40;;
37903;SDS011;23738;50.422;18.758;2023-12-28T14:33:54;13.80;;;10.60;;
37903;SDS011;23738;50.422;18.758;2023-12-28T14:36:27;59.90;;;24.80;;
37903;SDS011;23738;50.422;18.758;2023-12-28T14:38:59;39.80;;;18.30;;